createdAt,value
2019-02-19T00:02:34.004Z,22.27
2019-02-19T00:05:04.625Z,19.27
2019-02-19T00:07:35.265Z,22.43
2019-02-19T00:10:06.138Z,23.03
2019-02-19T00:12:36.769Z,26.40
2019-02-19T00:15:08.567Z,22.10
2019-02-19T00:17:39.352Z,27.00
2019-02-19T00:20:10.937Z,33.17
2019-02-19T00:22:41.590Z,28.63
2019-02-19T00:25:12.622Z,26.70
2019-02-19T00:27:44.301Z,19.87
2019-02-19T00:30:14.922Z,20.20
2019-02-19T00:32:45.556Z,20.10
2019-02-19T00:35:16.175Z,22.63
2019-02-19T00:37:46.814Z,20.87
2019-02-19T00:40:17.426Z,18.90
2019-02-19T00:42:48.044Z,20.43
2019-02-19T00:45:18.735Z,19.90
2019-02-19T00:47:49.366Z,18.63
2019-02-19T00:50:19.913Z,22.93
2019-02-19T00:52:50.546Z,17.67
2019-02-19T00:55:21.161Z,18.50
2019-02-19T00:57:51.809Z,28.80
2019-02-19T01:00:22.511Z,18.93
2019-02-19T01:02:53.174Z,14.83
2019-02-19T01:05:23.877Z,21.50
2019-02-19T01:07:54.516Z,21.10
2019-02-19T01:10:25.216Z,19.13
2019-02-19T01:12:55.776Z,22.10
2019-02-19T01:15:26.403Z,21.40
2019-02-19T01:17:58.012Z,22.60
2019-02-19T01:20:28.711Z,20.70
2019-02-19T01:22:59.356Z,22.40
2019-02-19T01:25:30.068Z,19.00
2019-02-19T01:28:00.710Z,22.90
2019-02-19T01:30:31.321Z,21.70
2019-02-19T01:33:01.961Z,24.73
2019-02-19T01:35:32.663Z,20.50
2019-02-19T01:38:03.385Z,22.00
2019-02-19T01:40:34.013Z,19.23
2019-02-19T01:43:04.582Z,17.17
2019-02-19T01:45:35.192Z,21.93
2019-02-19T01:48:05.759Z,24.67
2019-02-19T01:50:36.369Z,20.90
2019-02-19T01:53:07.093Z,19.83
2019-02-19T01:55:37.826Z,19.17
2019-02-19T01:58:08.471Z,21.13
2019-02-19T02:00:39.080Z,22.50
2019-02-19T02:03:09.641Z,18.80
2019-02-19T02:05:40.266Z,19.37
2019-02-19T02:08:10.907Z,24.07
2019-02-19T02:10:41.609Z,17.03
2019-02-19T02:13:12.331Z,19.90
2019-02-19T02:15:43.036Z,19.60
2019-02-19T02:18:13.661Z,19.60
2019-02-19T02:20:44.280Z,21.10
2019-02-19T02:23:14.840Z,22.47
2019-02-19T02:25:45.393Z,19.73
2019-02-19T02:28:16.028Z,23.47
2019-02-19T02:30:46.717Z,17.93
2019-02-19T02:33:17.285Z,17.90
2019-02-19T02:35:47.853Z,18.47
2019-02-19T02:38:18.509Z,21.10
2019-02-19T02:40:49.116Z,20.33
2019-02-19T02:43:19.704Z,27.73
2019-02-19T02:45:53.564Z,19.77
2019-02-19T02:48:22.672Z,17.50
2019-02-19T02:50:53.362Z,17.90
2019-02-19T02:53:24.022Z,17.83
2019-02-19T02:55:54.652Z,18.30
2019-02-19T02:58:25.548Z,17.83
2019-02-19T03:00:56.248Z,21.33
2019-02-19T03:03:26.934Z,17.60
2019-02-19T03:06:21.237Z,20.27
2019-02-19T03:08:51.999Z,22.17
2019-02-19T03:11:22.593Z,17.40
2019-02-19T03:13:53.233Z,20.13
2019-02-19T03:16:24.541Z,17.93
2019-02-19T03:18:55.210Z,20.77
2019-02-19T03:21:25.842Z,18.20
2019-02-19T03:23:56.761Z,18.30
2019-02-19T03:26:27.386Z,19.57
2019-02-19T03:28:58.039Z,20.07
2019-02-19T03:31:28.647Z,22.33
2019-02-19T03:33:59.374Z,19.50
2019-02-19T03:36:30.007Z,20.80
2019-02-19T03:39:00.665Z,20.33
2019-02-19T03:41:31.216Z,19.87
2019-02-19T03:44:01.875Z,23.07
2019-02-19T03:46:32.492Z,21.23
2019-02-19T03:49:03.146Z,22.00
2019-02-19T03:51:33.709Z,24.23
2019-02-19T03:54:04.396Z,21.87
2019-02-19T03:56:35.048Z,20.50
2019-02-19T03:59:05.768Z,23.40
2019-02-19T04:01:36.427Z,25.90
2019-02-19T04:04:07.125Z,25.13
2019-02-19T04:06:37.754Z,22.53
2019-02-19T04:09:08.398Z,21.53
2019-02-19T04:11:39.117Z,21.63
2019-02-19T04:14:09.834Z,21.23
2019-02-19T04:16:40.481Z,19.43
2019-02-19T04:19:11.118Z,23.93
2019-02-19T04:21:41.758Z,21.20
2019-02-19T04:24:12.399Z,21.07
2019-02-19T04:26:42.989Z,21.30
2019-02-19T04:29:13.554Z,20.40
2019-02-19T04:31:44.205Z,22.07
2019-02-19T04:34:14.897Z,19.27
2019-02-19T04:36:45.528Z,20.80
2019-02-19T04:39:16.077Z,21.60
2019-02-19T04:41:46.724Z,23.60
2019-02-19T04:44:17.419Z,19.70
2019-02-19T04:46:48.138Z,22.63
2019-02-19T04:49:18.762Z,20.30
2019-02-19T04:51:49.473Z,22.33
2019-02-19T04:54:20.038Z,19.80
2019-02-19T04:56:50.691Z,20.67
2019-02-19T04:59:21.325Z,20.00
2019-02-19T05:01:52.050Z,15.80
2019-02-19T05:04:22.668Z,18.07
2019-02-19T05:06:53.316Z,18.70
2019-02-19T05:09:23.971Z,18.87
2019-02-19T05:11:54.612Z,19.03
2019-02-19T05:14:25.243Z,15.57
2019-02-19T05:16:55.889Z,16.47
2019-02-19T05:19:26.505Z,17.13
2019-02-19T05:21:57.234Z,23.63
2019-02-19T05:24:27.853Z,23.43
2019-02-19T05:26:58.488Z,21.13
2019-02-19T05:29:29.121Z,18.10
2019-02-19T05:31:59.691Z,18.27
2019-02-19T05:34:30.336Z,19.73
2019-02-19T05:37:00.989Z,30.00
2019-02-19T05:39:31.623Z,21.67
2019-02-19T05:42:02.270Z,16.53
2019-02-19T05:44:32.817Z,22.83
2019-02-19T05:47:03.410Z,20.90
2019-02-19T05:49:34.045Z,19.10
2019-02-19T05:52:04.648Z,18.50
2019-02-19T05:54:35.220Z,23.03
2019-02-19T05:57:05.847Z,16.23
2019-02-19T05:59:36.475Z,18.53
2019-02-19T06:30:54.210Z,20.60
2019-02-19T06:33:25.079Z,24.90
2019-02-19T06:36:01.767Z,23.73
2019-02-19T06:38:32.680Z,21.73
2019-02-19T06:41:03.550Z,20.70
2019-02-19T06:43:34.515Z,22.57
2019-02-19T06:46:06.321Z,18.37
2019-02-19T06:48:37.285Z,18.83
2019-02-19T07:21:00.397Z,24.60
2019-02-19T07:23:31.118Z,23.37
2019-02-19T07:26:01.988Z,23.13
2019-02-19T07:28:33.004Z,21.60
2019-02-19T07:31:04.051Z,20.47
2019-02-19T07:33:34.920Z,23.60
2019-02-19T07:36:05.693Z,18.23
2019-02-19T07:38:36.550Z,20.17
2019-02-19T07:41:07.514Z,22.93
2019-02-19T07:43:38.462Z,19.23
2019-02-19T07:46:10.290Z,21.50
2019-02-19T07:48:41.163Z,25.00
2019-02-19T07:51:13.062Z,22.93
2019-02-19T07:53:43.937Z,22.63
2019-02-19T07:56:14.862Z,26.33
2019-02-19T08:42:52.151Z,25.60
2019-02-19T08:45:22.852Z,21.67
2019-02-19T08:47:53.599Z,25.90
2019-02-19T08:50:24.291Z,22.13
2019-02-19T08:52:55.052Z,24.30
2019-02-19T08:55:25.756Z,21.23
2019-02-19T09:00:39.573Z,19.57
2019-02-19T09:03:10.344Z,20.00
2019-02-19T09:05:41.054Z,18.83
2019-02-19T09:08:11.677Z,23.43
2019-02-19T10:03:58.122Z,16.80
2019-02-19T10:06:29.419Z,20.10
2019-02-19T10:09:00.150Z,22.33
2019-02-19T10:11:30.781Z,17.40
2019-02-19T10:14:01.418Z,16.63
2019-02-19T10:16:32.076Z,26.10
2019-02-19T10:19:02.780Z,19.20
2019-02-19T10:21:33.489Z,17.13
2019-02-19T10:24:04.117Z,18.60
2019-02-19T10:26:34.689Z,16.33
2019-02-19T10:29:05.318Z,17.30
2019-02-19T10:31:36.081Z,21.67
2019-02-19T10:34:06.618Z,15.07
2019-02-19T10:36:38.557Z,11.37
2019-02-19T10:39:11.441Z,14.83
2019-02-19T10:41:42.101Z,11.83
2019-02-19T10:44:12.713Z,9.23
2019-02-19T10:46:43.350Z,12.10
2019-02-19T10:49:13.981Z,11.93
2019-02-19T10:51:44.539Z,9.90
2019-02-19T10:54:15.145Z,13.73
2019-02-19T10:56:45.774Z,8.23
2019-02-19T10:59:16.389Z,6.87
2019-02-19T11:01:46.945Z,10.80
2019-02-19T11:04:17.624Z,7.37
2019-02-19T11:06:48.261Z,9.23
2019-02-19T11:09:18.961Z,11.77
2019-02-19T11:11:49.521Z,9.10
2019-02-19T11:14:20.191Z,11.70
2019-02-19T11:16:50.813Z,6.27
2019-02-19T11:19:21.351Z,9.33
2019-02-19T11:21:51.968Z,9.73
2019-02-19T11:24:22.577Z,8.67
2019-02-19T11:26:53.280Z,11.90
2019-02-19T11:29:23.969Z,8.73
2019-02-19T11:31:54.520Z,10.90
2019-02-19T11:34:25.133Z,13.73
2019-02-19T11:36:55.758Z,8.17
2019-02-19T11:39:26.383Z,10.70
2019-02-19T11:41:57.017Z,10.23
2019-02-19T11:44:27.626Z,12.60
2019-02-19T11:46:58.256Z,11.73
2019-02-19T11:49:28.861Z,10.43
2019-02-19T11:51:59.501Z,12.57
2019-02-19T11:54:30.106Z,11.80
2019-02-19T11:57:00.809Z,10.63
2019-02-19T11:59:31.433Z,8.97
2019-02-19T12:02:03.717Z,12.00
2019-02-19T12:04:34.322Z,11.07
2019-02-19T12:07:04.965Z,12.67
2019-02-19T12:09:35.727Z,10.37
2019-02-19T12:12:06.381Z,12.67
2019-02-19T12:14:36.942Z,10.53
2019-02-19T12:17:07.592Z,12.70
2019-02-19T12:19:38.285Z,14.90
2019-02-19T12:22:08.845Z,10.80
2019-02-19T12:24:39.385Z,11.23
2019-02-19T12:27:10.005Z,10.67
2019-02-19T12:29:40.542Z,20.83
2019-02-19T12:32:11.173Z,12.47
2019-02-19T12:34:41.790Z,11.07
2019-02-19T12:37:12.425Z,9.77
2019-02-19T12:39:43.103Z,9.63
2019-02-19T12:42:13.857Z,9.90
2019-02-19T12:44:44.398Z,11.10
2019-02-19T12:47:15.028Z,22.70
2019-02-19T12:49:45.730Z,11.57
2019-02-19T12:52:16.438Z,12.10
2019-02-19T12:54:47.413Z,13.23
2019-02-19T12:57:18.042Z,14.57
2019-02-19T12:59:56.403Z,9.80
2019-02-19T13:02:20.914Z,10.33
2019-02-19T13:04:51.605Z,11.40
2019-02-19T13:07:22.243Z,13.70
2019-02-19T13:09:52.877Z,14.60
2019-02-19T13:12:23.502Z,14.40
2019-02-19T13:14:54.207Z,17.80
2019-02-19T13:17:24.917Z,12.80
2019-02-19T13:19:55.484Z,15.27
2019-02-19T13:22:26.211Z,14.33
2019-02-19T13:24:57.043Z,12.03
2019-02-19T13:27:27.797Z,18.80
2019-02-19T13:29:58.506Z,16.77
2019-02-19T13:32:29.138Z,16.83
2019-02-19T13:34:59.741Z,15.93
2019-02-19T13:37:30.306Z,12.20
2019-02-19T13:40:00.829Z,14.10
2019-02-19T13:42:31.381Z,20.63
2019-02-19T13:45:01.976Z,15.97
2019-02-19T13:47:32.609Z,14.67
2019-02-19T13:50:03.149Z,18.00
2019-02-19T13:52:51.228Z,14.53
2019-02-19T13:55:25.077Z,14.80
2019-02-19T13:57:57.396Z,14.40
2019-02-19T14:00:29.316Z,24.13
2019-02-19T14:02:59.940Z,17.93
2019-02-19T14:05:30.545Z,16.77
2019-02-19T14:08:01.101Z,20.20
2019-02-19T14:10:32.781Z,19.90
2019-02-19T14:13:03.506Z,18.77
2019-02-19T14:16:02.209Z,16.00
2019-02-19T14:18:50.241Z,17.90
2019-02-19T14:21:38.618Z,17.43
2019-02-19T14:24:27.668Z,16.60
2019-02-19T14:27:14.293Z,18.00
2019-02-19T14:30:07.076Z,16.33
2019-02-19T14:33:05.942Z,23.63
2019-02-19T14:35:45.343Z,17.30
2019-02-19T14:38:38.002Z,15.77
2019-02-19T14:41:28.617Z,16.17
2019-02-19T14:44:14.200Z,19.77
2019-02-19T14:47:06.633Z,21.27
2019-02-19T14:49:57.707Z,28.33
2019-02-19T14:53:03.728Z,25.00
2019-02-19T14:55:51.949Z,23.20
2019-02-19T14:58:47.537Z,18.70
2019-02-19T15:01:35.598Z,19.10
2019-02-19T15:04:28.067Z,18.93
2019-02-19T15:07:26.070Z,16.30
2019-02-19T15:10:14.147Z,18.03
2019-02-19T15:13:09.765Z,20.73
2019-02-19T15:16:02.197Z,22.87
2019-02-19T15:18:42.980Z,16.30
2019-02-19T15:21:32.574Z,20.37
2019-02-19T15:24:15.744Z,18.80
2019-02-19T15:27:07.897Z,17.47
2019-02-19T15:29:56.001Z,24.27
2019-02-19T15:33:03.483Z,21.33
2019-02-19T15:35:54.622Z,16.50
2019-02-19T15:38:35.275Z,17.10
2019-02-19T15:41:30.871Z,17.97
2019-02-19T15:44:11.282Z,17.53
2019-02-19T15:46:48.413Z,19.43
2019-02-19T15:49:47.503Z,19.27
2019-02-19T15:52:40.240Z,20.43
2019-02-19T15:55:29.902Z,19.80
2019-02-19T15:58:11.613Z,17.07
2019-02-19T16:00:46.921Z,17.27
2019-02-19T16:03:33.816Z,18.50
2019-02-19T16:06:15.857Z,18.80
2019-02-19T16:09:09.730Z,19.50
2019-02-19T16:12:14.280Z,19.90
2019-02-19T16:15:02.415Z,20.23
2019-02-19T16:17:45.049Z,19.33
2019-02-19T16:20:27.613Z,20.13
2019-02-19T16:23:19.951Z,24.07
2019-02-19T16:26:12.669Z,18.20
2019-02-19T16:29:00.669Z,21.53
2019-02-19T16:31:49.728Z,17.90
2019-02-19T16:34:33.385Z,21.07
2019-02-19T16:37:28.965Z,16.37
2019-02-19T16:40:17.278Z,22.80
2019-02-19T16:43:13.075Z,30.57
2019-02-19T16:46:11.563Z,23.03
2019-02-19T16:49:01.376Z,19.77
2019-02-19T16:52:00.071Z,21.27
2019-02-19T16:54:41.656Z,19.80
2019-02-19T16:57:29.918Z,15.70
2019-02-19T17:00:19.563Z,16.00
2019-02-19T17:03:15.137Z,17.30
2019-02-19T17:06:19.625Z,17.47
2019-02-19T17:08:56.483Z,24.03
2019-02-19T17:11:37.414Z,24.73
2019-02-19T17:14:32.704Z,20.20
2019-02-19T17:17:15.614Z,18.23
2019-02-19T17:20:21.146Z,28.90
2019-02-19T17:22:58.282Z,18.77
2019-02-19T17:25:35.156Z,22.23
2019-02-19T17:28:21.362Z,17.43
2019-02-19T17:31:09.390Z,15.33
2019-02-19T17:33:57.783Z,16.90
2019-02-19T17:36:43.191Z,21.77
2019-02-19T17:39:28.823Z,16.53
2019-02-19T17:42:06.101Z,17.93
2019-02-19T17:44:52.670Z,17.00
2019-02-19T17:47:37.506Z,20.47
2019-02-19T17:50:38.832Z,21.77
2019-02-19T17:53:29.582Z,17.97
2019-02-19T17:56:23.621Z,19.20
2019-02-19T17:59:19.346Z,19.60
2019-02-19T18:02:00.125Z,25.50
2019-02-19T18:04:37.382Z,20.50
2019-02-19T18:07:36.190Z,16.70
2019-02-19T18:10:24.546Z,22.57
2019-02-19T18:13:14.225Z,19.07
2019-02-19T18:16:01.396Z,21.40
2019-02-19T18:18:49.293Z,19.50
2019-02-19T18:21:20.262Z,21.90
2019-02-19T18:23:51.704Z,22.13
2019-02-19T18:26:22.318Z,21.90
2019-02-19T18:28:52.944Z,22.40
2019-02-19T18:31:23.558Z,26.83
2019-02-19T18:33:54.192Z,26.60
2019-02-19T18:36:24.788Z,23.17
2019-02-19T18:38:55.425Z,23.90
2019-02-19T18:41:26.090Z,20.67
2019-02-19T18:43:56.701Z,24.17
2019-02-19T18:46:27.297Z,22.53
2019-02-19T18:48:58.252Z,18.47
2019-02-19T18:51:31.231Z,23.17
2019-02-19T18:54:03.170Z,23.10
2019-02-19T18:56:34.122Z,20.67
2019-02-19T18:59:05.094Z,29.20
2019-02-19T19:01:36.353Z,27.63
2019-02-19T19:24:23.612Z,27.17
2019-02-19T19:26:58.198Z,27.63
2019-02-19T19:29:29.458Z,31.20
2019-02-19T19:32:00.154Z,31.93
2019-02-19T19:34:30.858Z,34.97
2019-02-19T19:37:01.578Z,27.73
2019-02-19T19:39:32.240Z,22.43
2019-02-19T19:42:02.943Z,26.10
2019-02-19T19:44:33.608Z,31.10
2019-02-19T19:47:04.228Z,29.13
2019-02-19T19:49:34.963Z,29.67
2019-02-19T19:52:05.883Z,27.23
2019-02-19T19:54:36.617Z,28.87
2019-02-19T19:57:07.246Z,34.10
2019-02-19T19:59:37.910Z,49.10
2019-02-19T20:02:09.875Z,40.50
2019-02-19T20:04:40.594Z,30.73
2019-02-19T20:07:11.298Z,33.33
2019-02-19T20:09:41.887Z,32.50
2019-02-19T20:12:12.587Z,42.87
2019-02-19T20:14:43.386Z,48.57
2019-02-19T20:17:14.084Z,46.00
2019-02-19T20:19:44.755Z,39.33
2019-02-19T20:22:15.384Z,40.37
2019-02-19T20:24:47.088Z,35.57
2019-02-19T20:27:17.783Z,33.93
2019-02-19T20:29:48.515Z,36.97
2019-02-19T20:32:19.227Z,41.13
2019-02-19T20:34:49.874Z,40.70
2019-02-19T20:37:22.224Z,36.33
2019-02-19T20:39:52.830Z,30.60
2019-02-19T20:42:23.495Z,41.10
2019-02-19T20:44:54.189Z,33.37
2019-02-19T20:47:31.059Z,34.30
2019-02-19T20:50:08.197Z,36.70
2019-02-19T20:52:40.394Z,38.53
2019-02-19T20:55:13.351Z,33.57
2019-02-19T20:57:49.114Z,36.70
2019-02-19T21:00:21.685Z,32.07
2019-02-19T21:02:52.444Z,36.27
2019-02-19T21:05:23.117Z,43.30
2019-02-19T21:07:54.878Z,36.83
2019-02-19T21:10:26.640Z,37.20
2019-02-19T21:12:57.424Z,36.80
2019-02-19T21:15:28.154Z,34.57
2019-02-19T21:17:58.798Z,33.27
2019-02-19T21:20:29.445Z,28.80
2019-02-19T21:28:52.277Z,31.23
2019-02-19T21:31:22.800Z,29.37
2019-02-19T21:33:53.522Z,31.63
2019-02-19T21:36:24.256Z,25.57
2019-02-19T21:38:55.039Z,27.97
2019-02-19T21:41:25.798Z,32.30
2019-02-19T21:43:56.930Z,28.37
2019-02-19T21:46:27.714Z,28.43
2019-02-19T21:48:58.353Z,28.93
2019-02-19T21:51:29.022Z,31.83
2019-02-19T21:53:59.609Z,26.47
2019-02-19T21:56:30.342Z,31.47
2019-02-19T21:59:00.973Z,40.93
2019-02-19T22:01:31.707Z,38.03
2019-02-19T22:04:03.397Z,36.80
2019-02-19T22:06:34.211Z,30.33
2019-02-19T22:09:06.162Z,37.70
2019-02-19T22:11:38.348Z,29.80
2019-02-19T22:14:09.068Z,28.83
2019-02-19T22:16:39.721Z,36.33
2019-02-19T22:19:10.469Z,29.90
2019-02-19T22:22:03.451Z,26.80
2019-02-19T22:24:35.905Z,28.67
2019-02-19T22:27:08.028Z,28.40
2019-02-19T22:29:39.541Z,28.20
2019-02-19T22:32:10.882Z,24.60
2019-02-19T22:34:41.514Z,23.17
2019-02-19T22:37:12.187Z,26.73
2019-02-19T22:39:42.804Z,23.47
2019-02-19T22:42:13.451Z,22.40
2019-02-19T22:44:45.029Z,23.43
2019-02-19T22:47:15.610Z,24.97
2019-02-19T22:49:46.166Z,29.13
2019-02-19T22:52:16.800Z,23.13
2019-02-19T22:54:52.829Z,22.33
2019-02-19T22:57:23.396Z,22.90
2019-02-19T22:59:54.006Z,26.30
2019-02-19T23:02:26.737Z,25.13
2019-02-19T23:04:57.413Z,22.73
2019-02-19T23:07:28.045Z,28.43
2019-02-19T23:09:59.730Z,27.87
2019-02-19T23:12:30.285Z,30.07
2019-02-19T23:15:00.833Z,31.63
2019-02-19T23:17:32.626Z,25.00
2019-02-19T23:20:03.311Z,22.43
2019-02-19T23:22:34.116Z,21.07
2019-02-19T23:25:04.749Z,18.47
2019-02-19T23:27:35.369Z,23.10
2019-02-19T23:30:06.442Z,17.43
2019-02-19T23:32:38.810Z,33.90
2019-02-19T23:35:22.970Z,27.77
2019-02-19T23:37:53.596Z,33.00
2019-02-19T23:40:24.445Z,27.40
2019-02-19T23:42:55.426Z,32.10
2019-02-19T23:45:26.704Z,33.23
2019-02-19T23:47:58.314Z,31.93
2019-02-19T23:50:28.923Z,30.53
2019-02-19T23:52:59.731Z,26.83
2019-02-19T23:55:30.592Z,30.53
2019-02-19T23:58:01.246Z,30.07
